33OH weather

Sunset Strip
Jerome, Ohio, United States

Public forecast

Using degrees Fahrenheit for public forecast. Weather courtesy of forecast.io.

Closest aviation weather report (METAR) to Sunset Strip

Closest report is Delaware Municipal Airport, 6.3 nm (11.6 km) NNE. Retrieved 2020/05/26 19:59 UTC (11 minutes ago):

KDLZ 261959Z AUTO 13011KT 10SM SCT055 31/16 A3004 RMK AO2

Closest aviation forecast (TAF) to Sunset Strip

Closest forecast is John Glenn Columbus International Airport, 17.1 nm (31.7 km) SE. Retrieved 2020/05/26 18:27 UTC (2 hours ago):

TAF KCMH 261723Z 2618/2718 14005KT P6SM FEW040 FEW250 FM270500 14004KT P6SM SCT040 BKN250 FM271000 14004KT P6SM FEW040 BKN120 FM271400 15006KT P6SM SCT040 SCT100